Terminal Aerodrome Forecast
Issued by NWS

Home | Current Version | Previous Version | Text Only | Print | Product List | Glossary On
Versions: 1 2 3 4 5 6 7 8 9 10 11 12 13
000
FTUS42 KMLB 041727
TAFSFB
TAF
KSFB 041727Z 0418/0518 08016G21KT P6SM FEW045 SCT060 BKN080
     FM050000 07010KT P6SM FEW060 SCT250
     FM051400 08013G19KT P6SM SCT040 BKN150=

USA.gov is the U.S. government's official web portal to all federal, state and local government web resources and services.